sensor_id;sensor_type;location;lat;lon;timestamp;pressure;altitude;pressure_sealevel;temperature;humidity
7182;BME280;3632;42.724;23.298;2023-05-21T00:00:56;95212.94;;;14.65;100.00
7182;BME280;3632;42.724;23.298;2023-05-21T00:03:25;94795.19;;;12.17;100.00
7182;BME280;3632;42.724;23.298;2023-05-21T00:05:53;95250.75;;;15.16;100.00
7182;BME280;3632;42.724;23.298;2023-05-21T00:08:20;94695.59;;;11.80;100.00
7182;BME280;3632;42.724;23.298;2023-05-21T00:10:47;94678.22;;;11.84;100.00
7182;BME280;3632;42.724;23.298;2023-05-21T00:13:14;95121.00;;;14.78;100.00
7182;BME280;3632;42.724;23.298;2023-05-21T00:15:41;95242.94;;;15.61;100.00
7182;BME280;3632;42.724;23.298;2023-05-21T00:18:10;95250.03;;;15.67;100.00
7182;BME280;3632;42.724;23.298;2023-05-21T00:20:36;95260.25;;;15.59;100.00
7182;BME280;3632;42.724;23.298;2023-05-21T00:23:05;95226.75;;;15.69;100.00
7182;BME280;3632;42.724;23.298;2023-05-21T00:25:32;95239.66;;;15.51;100.00
7182;BME280;3632;42.724;23.298;2023-05-21T00:27:59;95185.91;;;14.26;100.00
7182;BME280;3632;42.724;23.298;2023-05-21T00:30:26;95230.50;;;15.31;100.00
7182;BME280;3632;42.724;23.298;2023-05-21T00:32:53;95213.28;;;15.23;100.00
7182;BME280;3632;42.724;23.298;2023-05-21T00:35:24;95085.13;;;14.43;100.00
7182;BME280;3632;42.724;23.298;2023-05-21T00:37:51;95224.59;;;15.38;100.00
7182;BME280;3632;42.724;23.298;2023-05-21T00:40:18;95230.59;;;15.47;100.00
7182;BME280;3632;42.724;23.298;2023-05-21T00:42:45;95224.91;;;15.53;100.00
7182;BME280;3632;42.724;23.298;2023-05-21T00:45:13;94833.75;;;12.96;100.00
7182;BME280;3632;42.724;23.298;2023-05-21T00:47:41;95225.53;;;15.55;100.00
7182;BME280;3632;42.724;23.298;2023-05-21T00:50:09;95225.88;;;15.17;100.00
7182;BME280;3632;42.724;23.298;2023-05-21T00:52:41;95225.47;;;15.47;100.00
7182;BME280;3632;42.724;23.298;2023-05-21T00:55:10;95223.22;;;15.44;100.00
7182;BME280;3632;42.724;23.298;2023-05-21T00:57:37;95223.94;;;15.11;100.00
7182;BME280;3632;42.724;23.298;2023-05-21T01:00:06;95229.38;;;14.72;100.00
7182;BME280;3632;42.724;23.298;2023-05-21T01:02:35;95165.97;;;14.47;100.00
7182;BME280;3632;42.724;23.298;2023-05-21T01:05:02;95215.56;;;14.91;100.00
7182;BME280;3632;42.724;23.298;2023-05-21T01:07:30;95220.34;;;14.86;100.00
7182;BME280;3632;42.724;23.298;2023-05-21T01:10:01;95113.88;;;14.01;100.00
7182;BME280;3632;42.724;23.298;2023-05-21T01:12:30;95079.72;;;13.65;100.00
7182;BME280;3632;42.724;23.298;2023-05-21T01:14:58;95210.22;;;14.49;100.00
7182;BME280;3632;42.724;23.298;2023-05-21T01:17:26;95224.94;;;14.64;100.00
7182;BME280;3632;42.724;23.298;2023-05-21T01:19:54;95209.84;;;14.44;100.00
7182;BME280;3632;42.724;23.298;2023-05-21T01:22:23;95143.13;;;14.08;100.00
7182;BME280;3632;42.724;23.298;2023-05-21T01:24:52;95229.94;;;14.66;100.00
7182;BME280;3632;42.724;23.298;2023-05-21T01:27:20;95124.50;;;14.06;100.00
7182;BME280;3632;42.724;23.298;2023-05-21T01:29:47;95205.16;;;14.75;100.00
7182;BME280;3632;42.724;23.298;2023-05-21T01:32:17;95202.59;;;14.75;100.00
7182;BME280;3632;42.724;23.298;2023-05-21T01:34:55;95204.72;;;14.79;100.00
7182;BME280;3632;42.724;23.298;2023-05-21T01:37:29;95199.28;;;14.82;100.00
7182;BME280;3632;42.724;23.298;2023-05-21T01:40:01;95040.75;;;13.89;100.00
7182;BME280;3632;42.724;23.298;2023-05-21T01:42:32;95191.38;;;14.40;100.00
7182;BME280;3632;42.724;23.298;2023-05-21T01:45:02;95214.59;;;14.56;100.00
7182;BME280;3632;42.724;23.298;2023-05-21T01:47:32;95209.78;;;14.53;100.00
7182;BME280;3632;42.724;23.298;2023-05-21T01:50:00;95201.50;;;14.42;100.00
7182;BME280;3632;42.724;23.298;2023-05-21T01:52:28;95201.53;;;14.32;100.00
7182;BME280;3632;42.724;23.298;2023-05-21T01:54:55;95075.13;;;13.69;100.00
7182;BME280;3632;42.724;23.298;2023-05-21T01:57:24;94968.59;;;13.04;100.00
7182;BME280;3632;42.724;23.298;2023-05-21T01:59:51;94652.09;;;10.79;100.00
7182;BME280;3632;42.724;23.298;2023-05-21T02:02:19;94877.66;;;11.42;100.00
7182;BME280;3632;42.724;23.298;2023-05-21T02:04:46;95196.88;;;14.18;100.00
7182;BME280;3632;42.724;23.298;2023-05-21T02:07:14;95186.47;;;14.19;100.00
7182;BME280;3632;42.724;23.298;2023-05-21T02:09:42;95183.56;;;14.42;100.00
7182;BME280;3632;42.724;23.298;2023-05-21T02:12:10;95195.56;;;14.41;100.00
7182;BME280;3632;42.724;23.298;2023-05-21T02:14:38;95194.38;;;14.36;100.00
7182;BME280;3632;42.724;23.298;2023-05-21T02:17:05;95073.28;;;13.61;100.00
7182;BME280;3632;42.724;23.298;2023-05-21T02:19:32;94678.41;;;10.61;100.00
7182;BME280;3632;42.724;23.298;2023-05-21T02:21:59;95189.75;;;14.39;100.00
7182;BME280;3632;42.724;23.298;2023-05-21T02:24:26;95200.19;;;14.38;100.00
7182;BME280;3632;42.724;23.298;2023-05-21T02:26:53;95207.66;;;14.49;100.00
7182;BME280;3632;42.724;23.298;2023-05-21T02:29:20;95196.63;;;14.39;100.00
7182;BME280;3632;42.724;23.298;2023-05-21T02:31:49;95186.69;;;14.36;100.00
7182;BME280;3632;42.724;23.298;2023-05-21T02:34:16;95190.59;;;14.30;100.00
7182;BME280;3632;42.724;23.298;2023-05-21T02:36:45;95187.25;;;14.30;100.00
7182;BME280;3632;42.724;23.298;2023-05-21T02:39:13;95094.59;;;13.62;100.00
7182;BME280;3632;42.724;23.298;2023-05-21T02:41:40;95182.91;;;14.30;100.00
7182;BME280;3632;42.724;23.298;2023-05-21T02:44:07;95181.28;;;14.11;100.00
7182;BME280;3632;42.724;23.298;2023-05-21T02:46:33;94694.63;;;10.79;100.00
7182;BME280;3632;42.724;23.298;2023-05-21T02:49:02;95181.28;;;14.11;100.00
7182;BME280;3632;42.724;23.298;2023-05-21T02:51:29;95184.88;;;14.18;100.00
7182;BME280;3632;42.724;23.298;2023-05-21T02:53:56;95205.53;;;14.17;100.00
7182;BME280;3632;42.724;23.298;2023-05-21T02:56:22;95080.97;;;13.61;100.00
7182;BME280;3632;42.724;23.298;2023-05-21T02:58:50;95173.38;;;14.23;100.00
7182;BME280;3632;42.724;23.298;2023-05-21T03:01:17;95169.19;;;14.22;100.00
7182;BME280;3632;42.724;23.298;2023-05-21T03:03:44;95175.28;;;14.21;100.00
7182;BME280;3632;42.724;23.298;2023-05-21T03:06:12;95175.41;;;14.19;100.00
7182;BME280;3632;42.724;23.298;2023-05-21T03:08:40;95188.09;;;14.21;100.00
7182;BME280;3632;42.724;23.298;2023-05-21T03:11:07;94700.13;;;10.55;100.00
7182;BME280;3632;42.724;23.298;2023-05-21T03:13:34;95185.16;;;13.88;100.00
7182;BME280;3632;42.724;23.298;2023-05-21T03:16:01;95192.84;;;13.88;100.00
7182;BME280;3632;42.724;23.298;2023-05-21T03:18:28;95188.84;;;13.76;100.00
7182;BME280;3632;42.724;23.298;2023-05-21T03:20:55;95023.06;;;11.82;100.00
7182;BME280;3632;42.724;23.298;2023-05-21T03:23:25;95201.00;;;13.74;100.00
7182;BME280;3632;42.724;23.298;2023-05-21T03:25:51;95218.84;;;13.66;100.00
7182;BME280;3632;42.724;23.298;2023-05-21T03:28:18;95193.97;;;13.76;100.00
7182;BME280;3632;42.724;23.298;2023-05-21T03:30:46;95023.72;;;12.98;100.00
7182;BME280;3632;42.724;23.298;2023-05-21T03:33:14;95193.72;;;14.06;100.00
7182;BME280;3632;42.724;23.298;2023-05-21T03:35:41;95196.06;;;14.17;100.00
7182;BME280;3632;42.724;23.298;2023-05-21T03:38:08;95152.75;;;13.97;100.00
7182;BME280;3632;42.724;23.298;2023-05-21T03:40:36;94836.00;;;11.80;100.00
7182;BME280;3632;42.724;23.298;2023-05-21T03:43:03;95197.19;;;14.33;100.00
7182;BME280;3632;42.724;23.298;2023-05-21T03:45:30;95198.69;;;14.35;100.00
7182;BME280;3632;42.724;23.298;2023-05-21T03:47:56;95108.97;;;13.36;100.00
7182;BME280;3632;42.724;23.298;2023-05-21T03:50:23;94719.53;;;11.04;100.00
7182;BME280;3632;42.724;23.298;2023-05-21T03:52:50;94597.09;;;10.77;100.00
7182;BME280;3632;42.724;23.298;2023-05-21T03:55:17;95195.41;;;14.60;100.00
7182;BME280;3632;42.724;23.298;2023-05-21T03:57:45;95216.13;;;14.04;100.00
7182;BME280;3632;42.724;23.298;2023-05-21T04:00:12;95184.19;;;14.44;100.00
7182;BME280;3632;42.724;23.298;2023-05-21T04:02:39;95188.44;;;14.35;100.00
7182;BME280;3632;42.724;23.298;2023-05-21T04:05:07;94821.22;;;11.84;100.00
7182;BME280;3632;42.724;23.298;2023-05-21T04:07:34;94631.63;;;11.08;100.00
7182;BME280;3632;42.724;23.298;2023-05-21T04:10:03;95205.53;;;14.62;100.00
7182;BME280;3632;42.724;23.298;2023-05-21T04:12:30;95173.63;;;14.29;100.00
7182;BME280;3632;42.724;23.298;2023-05-21T04:14:58;95107.00;;;14.02;100.00
7182;BME280;3632;42.724;23.298;2023-05-21T04:17:26;95195.34;;;14.52;100.00
7182;BME280;3632;42.724;23.298;2023-05-21T04:19:54;95166.13;;;14.18;100.00
7182;BME280;3632;42.724;23.298;2023-05-21T04:22:21;94831.84;;;12.26;100.00
7182;BME280;3632;42.724;23.298;2023-05-21T04:24:51;95192.66;;;14.72;100.00
7182;BME280;3632;42.724;23.298;2023-05-21T04:27:17;95185.38;;;14.85;100.00
7182;BME280;3632;42.724;23.298;2023-05-21T04:29:44;95190.84;;;14.90;100.00
7182;BME280;3632;42.724;23.298;2023-05-21T04:32:14;95186.59;;;14.98;100.00
7182;BME280;3632;42.724;23.298;2023-05-21T04:34:42;94758.91;;;12.31;100.00
7182;BME280;3632;42.724;23.298;2023-05-21T04:37:09;95121.09;;;14.69;100.00
7182;BME280;3632;42.724;23.298;2023-05-21T04:39:36;94956.72;;;13.75;100.00
7182;BME280;3632;42.724;23.298;2023-05-21T04:42:05;95181.75;;;15.13;100.00
7182;BME280;3632;42.724;23.298;2023-05-21T04:44:35;95206.97;;;15.18;100.00
7182;BME280;3632;42.724;23.298;2023-05-21T04:47:02;95185.22;;;15.30;100.00
7182;BME280;3632;42.724;23.298;2023-05-21T04:49:30;95091.50;;;14.21;100.00
7182;BME280;3632;42.724;23.298;2023-05-21T04:51:59;95190.72;;;15.35;100.00
7182;BME280;3632;42.724;23.298;2023-05-21T04:54:26;95202.38;;;14.86;100.00
7182;BME280;3632;42.724;23.298;2023-05-21T04:56:53;94814.28;;;12.41;100.00
7182;BME280;3632;42.724;23.298;2023-05-21T04:59:20;95138.03;;;14.79;100.00
7182;BME280;3632;42.724;23.298;2023-05-21T05:01:47;95106.81;;;14.66;100.00
7182;BME280;3632;42.724;23.298;2023-05-21T05:04:14;95192.53;;;15.42;100.00
7182;BME280;3632;42.724;23.298;2023-05-21T05:06:42;95212.19;;;15.08;100.00
7182;BME280;3632;42.724;23.298;2023-05-21T05:09:08;94649.66;;;11.98;100.00
7182;BME280;3632;42.724;23.298;2023-05-21T05:11:35;95129.34;;;14.54;100.00
7182;BME280;3632;42.724;23.298;2023-05-21T05:14:02;95186.13;;;15.72;100.00
7182;BME280;3632;42.724;23.298;2023-05-21T05:16:29;94696.81;;;12.84;100.00
7182;BME280;3632;42.724;23.298;2023-05-21T05:18:56;95195.44;;;16.07;100.00
7182;BME280;3632;42.724;23.298;2023-05-21T05:21:22;95185.22;;;16.23;100.00
7182;BME280;3632;42.724;23.298;2023-05-21T05:23:51;95188.09;;;16.20;100.00
7182;BME280;3632;42.724;23.298;2023-05-21T05:26:17;95168.41;;;15.95;99.16
7182;BME280;3632;42.724;23.298;2023-05-21T05:28:45;95197.13;;;16.32;95.43
7182;BME280;3632;42.724;23.298;2023-05-21T05:31:12;95162.28;;;16.46;93.82
7182;BME280;3632;42.724;23.298;2023-05-21T05:33:39;95183.06;;;16.69;93.61
7182;BME280;3632;42.724;23.298;2023-05-21T05:36:06;95184.84;;;16.76;94.63
7182;BME280;3632;42.724;23.298;2023-05-21T05:38:33;95184.19;;;16.58;93.99
7182;BME280;3632;42.724;23.298;2023-05-21T05:41:02;95183.88;;;16.61;94.98
7182;BME280;3632;42.724;23.298;2023-05-21T05:43:29;94632.00;;;13.19;93.57
7182;BME280;3632;42.724;23.298;2023-05-21T05:45:55;95062.88;;;16.13;92.86
7182;BME280;3632;42.724;23.298;2023-05-21T05:48:22;94876.06;;;14.98;91.43
7182;BME280;3632;42.724;23.298;2023-05-21T05:50:49;94620.47;;;13.41;90.21
7182;BME280;3632;42.724;23.298;2023-05-21T05:53:19;95148.84;;;16.84;91.37
7182;BME280;3632;42.724;23.298;2023-05-21T05:55:45;95273.53;;;17.14;91.30
7182;BME280;3632;42.724;23.298;2023-05-21T05:58:14;95152.03;;;16.95;89.44
7182;BME280;3632;42.724;23.298;2023-05-21T06:00:41;95171.19;;;16.92;93.29
7182;BME280;3632;42.724;23.298;2023-05-21T06:03:08;95178.56;;;17.11;92.75
7182;BME280;3632;42.724;23.298;2023-05-21T06:05:36;95043.31;;;16.36;92.02
7182;BME280;3632;42.724;23.298;2023-05-21T06:08:03;95182.88;;;17.51;90.79
7182;BME280;3632;42.724;23.298;2023-05-21T06:10:30;95175.13;;;17.67;88.16
7182;BME280;3632;42.724;23.298;2023-05-21T06:12:57;95175.75;;;17.77;87.93
7182;BME280;3632;42.724;23.298;2023-05-21T06:15:25;95173.28;;;17.92;86.42
7182;BME280;3632;42.724;23.298;2023-05-21T06:17:52;95173.19;;;17.77;86.33
7182;BME280;3632;42.724;23.298;2023-05-21T06:20:19;95008.59;;;16.24;86.29
7182;BME280;3632;42.724;23.298;2023-05-21T06:22:45;95164.16;;;18.12;85.61
7182;BME280;3632;42.724;23.298;2023-05-21T06:25:12;95156.06;;;18.23;83.81
7182;BME280;3632;42.724;23.298;2023-05-21T06:27:40;95165.06;;;18.27;82.99
7182;BME280;3632;42.724;23.298;2023-05-21T06:30:07;94953.03;;;16.86;81.12
7182;BME280;3632;42.724;23.298;2023-05-21T06:32:36;95123.59;;;17.67;80.48
7182;BME280;3632;42.724;23.298;2023-05-21T06:35:03;95165.09;;;18.19;83.39
7182;BME280;3632;42.724;23.298;2023-05-21T06:37:30;94894.75;;;16.46;84.09
7182;BME280;3632;42.724;23.298;2023-05-21T06:39:57;95154.34;;;18.39;83.19
7182;BME280;3632;42.724;23.298;2023-05-21T06:42:26;95272.69;;;18.50;82.23
7182;BME280;3632;42.724;23.298;2023-05-21T06:44:53;94910.66;;;16.50;81.22
7182;BME280;3632;42.724;23.298;2023-05-21T06:47:20;95160.72;;;18.51;82.16
7182;BME280;3632;42.724;23.298;2023-05-21T06:49:48;95148.59;;;18.59;81.89
7182;BME280;3632;42.724;23.298;2023-05-21T06:52:15;95141.31;;;18.63;81.35
7182;BME280;3632;42.724;23.298;2023-05-21T06:54:42;95041.41;;;17.72;83.89
7182;BME280;3632;42.724;23.298;2023-05-21T06:57:09;95083.13;;;18.07;82.30
7182;BME280;3632;42.724;23.298;2023-05-21T06:59:36;95150.38;;;18.59;83.07
7182;BME280;3632;42.724;23.298;2023-05-21T07:02:03;95142.25;;;18.39;81.25
7182;BME280;3632;42.724;23.298;2023-05-21T07:04:29;94851.63;;;16.56;80.27
7182;BME280;3632;42.724;23.298;2023-05-21T07:06:58;95139.81;;;18.68;80.08
7182;BME280;3632;42.724;23.298;2023-05-21T07:09:24;95135.03;;;18.80;79.12
7182;BME280;3632;42.724;23.298;2023-05-21T07:11:51;95143.47;;;18.97;76.99
7182;BME280;3632;42.724;23.298;2023-05-21T07:14:18;94999.13;;;17.59;78.57
7182;BME280;3632;42.724;23.298;2023-05-21T07:16:45;95134.50;;;19.07;79.30
7182;BME280;3632;42.724;23.298;2023-05-21T07:19:12;95128.25;;;19.02;78.70
7182;BME280;3632;42.724;23.298;2023-05-21T07:21:40;95065.41;;;18.49;78.17
7182;BME280;3632;42.724;23.298;2023-05-21T07:24:08;95076.97;;;18.61;78.95
7182;BME280;3632;42.724;23.298;2023-05-21T07:26:34;95132.56;;;19.09;79.21
7182;BME280;3632;42.724;23.298;2023-05-21T07:29:01;95113.16;;;19.13;79.08
7182;BME280;3632;42.724;23.298;2023-05-21T07:31:28;95078.72;;;18.84;76.09
7182;BME280;3632;42.724;23.298;2023-05-21T07:33:55;94959.34;;;18.21;74.88
7182;BME280;3632;42.724;23.298;2023-05-21T07:36:22;94878.59;;;18.21;73.74
7182;BME280;3632;42.724;23.298;2023-05-21T07:38:48;95138.16;;;19.80;73.30
7182;BME280;3632;42.724;23.298;2023-05-21T07:41:17;95192.47;;;19.80;69.65
7182;BME280;3632;42.724;23.298;2023-05-21T07:43:43;95131.19;;;19.66;71.20
7182;BME280;3632;42.724;23.298;2023-05-21T07:46:10;95163.41;;;19.63;69.18
7182;BME280;3632;42.724;23.298;2023-05-21T07:48:37;95130.59;;;19.64;71.23
7182;BME280;3632;42.724;23.298;2023-05-21T07:51:04;95085.28;;;19.38;69.33
7182;BME280;3632;42.724;23.298;2023-05-21T07:53:31;95082.41;;;19.33;70.32
7182;BME280;3632;42.724;23.298;2023-05-21T07:55:58;95130.06;;;19.68;71.68
7182;BME280;3632;42.724;23.298;2023-05-21T07:58:26;94655.53;;;16.92;72.15
7182;BME280;3632;42.724;23.298;2023-05-21T08:00:53;95121.97;;;20.07;68.96
7182;BME280;3632;42.724;23.298;2023-05-21T08:03:20;95144.25;;;20.23;68.59
7182;BME280;3632;42.724;23.298;2023-05-21T08:05:47;95131.47;;;20.36;68.11
7182;BME280;3632;42.724;23.298;2023-05-21T08:08:15;95171.03;;;20.15;67.33
7182;BME280;3632;42.724;23.298;2023-05-21T08:10:42;94737.34;;;17.42;67.73
7182;BME280;3632;42.724;23.298;2023-05-21T08:13:10;95173.47;;;20.52;66.85
7182;BME280;3632;42.724;23.298;2023-05-21T08:15:38;94818.56;;;18.56;64.60
7182;BME280;3632;42.724;23.298;2023-05-21T08:18:05;95125.25;;;20.94;66.28
7182;BME280;3632;42.724;23.298;2023-05-21T08:20:31;94875.56;;;19.56;64.76
7182;BME280;3632;42.724;23.298;2023-05-21T08:22:59;94691.34;;;18.26;59.26
7182;BME280;3632;42.724;23.298;2023-05-21T08:25:26;94720.16;;;19.02;56.06
7182;BME280;3632;42.724;23.298;2023-05-21T08:27:53;95030.25;;;21.35;57.41
7182;BME280;3632;42.724;23.298;2023-05-21T08:30:20;95018.97;;;21.15;51.99
7182;BME280;3632;42.724;23.298;2023-05-21T08:32:48;95092.84;;;21.32;51.79
7182;BME280;3632;42.724;23.298;2023-05-21T08:35:15;95088.00;;;21.57;51.23
7182;BME280;3632;42.724;23.298;2023-05-21T08:37:42;95121.63;;;22.19;49.61
7182;BME280;3632;42.724;23.298;2023-05-21T08:40:10;95137.28;;;22.46;48.77
7182;BME280;3632;42.724;23.298;2023-05-21T08:42:41;95121.91;;;22.51;47.35
7182;BME280;3632;42.724;23.298;2023-05-21T08:45:10;95124.09;;;22.41;45.94
7182;BME280;3632;42.724;23.298;2023-05-21T08:47:40;95048.00;;;21.86;46.65
7182;BME280;3632;42.724;23.298;2023-05-21T08:50:11;94932.25;;;21.18;47.09
7182;BME280;3632;42.724;23.298;2023-05-21T08:52:38;94822.44;;;20.37;47.64
7182;BME280;3632;42.724;23.298;2023-05-21T08:55:06;94962.53;;;21.65;47.45
7182;BME280;3632;42.724;23.298;2023-05-21T08:57:33;95115.19;;;23.42;46.27
7182;BME280;3632;42.724;23.298;2023-05-21T09:00:00;95111.97;;;23.40;47.43
7182;BME280;3632;42.724;23.298;2023-05-21T09:02:32;95102.97;;;23.36;47.18
7182;BME280;3632;42.724;23.298;2023-05-21T09:05:00;94859.59;;;21.59;47.31
7182;BME280;3632;42.724;23.298;2023-05-21T09:07:30;95104.41;;;23.05;46.65
7182;BME280;3632;42.724;23.298;2023-05-21T09:10:05;94847.78;;;21.36;45.03
7182;BME280;3632;42.724;23.298;2023-05-21T09:12:34;95080.22;;;22.85;46.38
7182;BME280;3632;42.724;23.298;2023-05-21T09:15:01;95113.41;;;22.90;45.45
7182;BME280;3632;42.724;23.298;2023-05-21T09:17:29;95001.03;;;22.22;45.58
7182;BME280;3632;42.724;23.298;2023-05-21T09:20:10;95179.78;;;22.99;46.74
7182;BME280;3632;42.724;23.298;2023-05-21T09:22:43;95114.78;;;23.05;43.79
7182;BME280;3632;42.724;23.298;2023-05-21T09:25:12;95038.00;;;22.63;45.29
7182;BME280;3632;42.724;23.298;2023-05-21T09:27:39;94870.53;;;20.87;44.62
7182;BME280;3632;42.724;23.298;2023-05-21T09:30:09;95057.44;;;22.74;45.75
7182;BME280;3632;42.724;23.298;2023-05-21T09:32:37;94719.25;;;20.75;44.65
7182;BME280;3632;42.724;23.298;2023-05-21T09:35:08;95108.56;;;23.59;46.02
7182;BME280;3632;42.724;23.298;2023-05-21T09:37:38;95099.16;;;23.58;44.19
7182;BME280;3632;42.724;23.298;2023-05-21T09:40:14;95100.59;;;23.28;44.75
7182;BME280;3632;42.724;23.298;2023-05-21T09:42:43;94997.47;;;22.69;43.85
7182;BME280;3632;42.724;23.298;2023-05-21T09:45:11;95093.34;;;23.43;44.88
7182;BME280;3632;42.724;23.298;2023-05-21T09:47:41;94992.44;;;22.54;42.08
7182;BME280;3632;42.724;23.298;2023-05-21T09:50:09;95096.59;;;23.32;44.98
7182;BME280;3632;42.724;23.298;2023-05-21T09:52:37;94914.34;;;22.29;41.31
7182;BME280;3632;42.724;23.298;2023-05-21T09:55:05;95094.97;;;23.31;42.32
7182;BME280;3632;42.724;23.298;2023-05-21T09:57:39;95105.59;;;22.90;41.57
7182;BME280;3632;42.724;23.298;2023-05-21T10:00:08;95088.19;;;22.70;43.47
7182;BME280;3632;42.724;23.298;2023-05-21T10:02:39;95088.44;;;22.95;43.47
7182;BME280;3632;42.724;23.298;2023-05-21T10:05:09;95032.59;;;23.04;44.44
7182;BME280;3632;42.724;23.298;2023-05-21T10:07:38;95083.22;;;23.92;43.40
7182;BME280;3632;42.724;23.298;2023-05-21T10:10:11;95083.06;;;24.32;42.44
7182;BME280;3632;42.724;23.298;2023-05-21T10:12:40;95052.41;;;24.34;42.24
7182;BME280;3632;42.724;23.298;2023-05-21T10:15:12;95087.75;;;24.79;41.55
7182;BME280;3632;42.724;23.298;2023-05-21T10:17:40;95077.97;;;24.75;39.82
7182;BME280;3632;42.724;23.298;2023-05-21T10:20:09;95100.88;;;24.66;39.41
7182;BME280;3632;42.724;23.298;2023-05-21T10:22:37;95034.78;;;24.29;39.13
7182;BME280;3632;42.724;23.298;2023-05-21T10:25:06;95068.13;;;24.52;40.34
7182;BME280;3632;42.724;23.298;2023-05-21T10:27:34;94884.84;;;23.08;40.64
7182;BME280;3632;42.724;23.298;2023-05-21T10:30:05;95069.63;;;24.35;40.60
7182;BME280;3632;42.724;23.298;2023-05-21T10:32:33;95069.47;;;24.23;41.09
7182;BME280;3632;42.724;23.298;2023-05-21T10:35:00;94683.63;;;21.62;40.17
7182;BME280;3632;42.724;23.298;2023-05-21T10:37:28;95070.47;;;24.29;40.28
7182;BME280;3632;42.724;23.298;2023-05-21T10:39:55;95025.03;;;24.11;42.00
7182;BME280;3632;42.724;23.298;2023-05-21T10:42:44;94891.00;;;23.13;39.94
7182;BME280;3632;42.724;23.298;2023-05-21T10:45:24;95066.53;;;23.62;43.59
7182;BME280;3632;42.724;23.298;2023-05-21T10:48:07;95069.78;;;23.38;41.38
7182;BME280;3632;42.724;23.298;2023-05-21T10:51:06;94979.47;;;22.48;42.02
7182;BME280;3632;42.724;23.298;2023-05-21T10:53:47;95030.22;;;22.57;42.54
7182;BME280;3632;42.724;23.298;2023-05-21T10:56:21;95072.38;;;22.59;43.25
7182;BME280;3632;42.724;23.298;2023-05-21T10:59:08;95069.38;;;22.55;43.61
7182;BME280;3632;42.724;23.298;2023-05-21T11:01:40;95076.75;;;22.58;44.26
7182;BME280;3632;42.724;23.298;2023-05-21T11:04:10;95071.44;;;22.99;44.92
7182;BME280;3632;42.724;23.298;2023-05-21T11:06:39;94835.28;;;21.60;42.88
7182;BME280;3632;42.724;23.298;2023-05-21T11:09:13;95074.19;;;23.04;45.12
7182;BME280;3632;42.724;23.298;2023-05-21T11:11:42;94851.16;;;21.30;44.24
7182;BME280;3632;42.724;23.298;2023-05-21T11:14:25;94925.84;;;21.68;45.15
7182;BME280;3632;42.724;23.298;2023-05-21T11:16:54;95070.16;;;22.43;44.93
7182;BME280;3632;42.724;23.298;2023-05-21T11:19:21;95060.34;;;22.25;46.35
7182;BME280;3632;42.724;23.298;2023-05-21T11:21:58;95070.56;;;22.40;46.38
7182;BME280;3632;42.724;23.298;2023-05-21T11:24:25;95036.34;;;22.16;46.78
7182;BME280;3632;42.724;23.298;2023-05-21T11:27:00;94966.38;;;21.82;46.67
7182;BME280;3632;42.724;23.298;2023-05-21T11:29:37;94944.41;;;21.78;46.37
7182;BME280;3632;42.724;23.298;2023-05-21T11:32:08;95059.56;;;22.51;44.46
7182;BME280;3632;42.724;23.298;2023-05-21T11:34:36;95047.00;;;22.48;45.06
7182;BME280;3632;42.724;23.298;2023-05-21T11:37:23;95049.97;;;22.31;44.34
7182;BME280;3632;42.724;23.298;2023-05-21T11:39:52;95088.84;;;22.12;46.07
7182;BME280;3632;42.724;23.298;2023-05-21T11:42:30;95041.53;;;22.10;46.71
7182;BME280;3632;42.724;23.298;2023-05-21T11:44:59;94746.31;;;20.25;47.70
7182;BME280;3632;42.724;23.298;2023-05-21T11:47:29;95035.72;;;22.01;49.41
7182;BME280;3632;42.724;23.298;2023-05-21T11:49:57;94960.47;;;21.40;48.09
7182;BME280;3632;42.724;23.298;2023-05-21T11:52:25;95039.16;;;22.15;47.91
7182;BME280;3632;42.724;23.298;2023-05-21T11:54:54;95033.38;;;22.26;48.37
7182;BME280;3632;42.724;23.298;2023-05-21T11:57:26;94900.25;;;21.38;47.93
7182;BME280;3632;42.724;23.298;2023-05-21T11:59:56;95059.69;;;22.03;47.67
7182;BME280;3632;42.724;23.298;2023-05-21T12:02:25;95038.50;;;22.00;49.41
7182;BME280;3632;42.724;23.298;2023-05-21T12:04:54;95038.44;;;21.80;50.21
7182;BME280;3632;42.724;23.298;2023-05-21T12:07:25;95049.91;;;21.58;49.49
7182;BME280;3632;42.724;23.298;2023-05-21T12:09:54;95039.88;;;21.48;49.96
7182;BME280;3632;42.724;23.298;2023-05-21T12:12:24;95035.44;;;21.35;51.54
7182;BME280;3632;42.724;23.298;2023-05-21T12:14:53;95005.75;;;21.10;51.91
7182;BME280;3632;42.724;23.298;2023-05-21T12:17:21;95026.78;;;21.22;51.35
7182;BME280;3632;42.724;23.298;2023-05-21T12:19:50;94824.50;;;19.86;51.79
7182;BME280;3632;42.724;23.298;2023-05-21T12:22:19;95033.34;;;21.18;51.53
7182;BME280;3632;42.724;23.298;2023-05-21T12:24:47;94827.00;;;19.79;52.73
7182;BME280;3632;42.724;23.298;2023-05-21T12:27:14;94541.19;;;18.10;52.11
7182;BME280;3632;42.724;23.298;2023-05-21T12:29:44;95030.97;;;21.23;51.24
7182;BME280;3632;42.724;23.298;2023-05-21T12:32:12;94701.72;;;19.26;52.19
7182;BME280;3632;42.724;23.298;2023-05-21T12:34:41;95017.97;;;21.51;52.13
7182;BME280;3632;42.724;23.298;2023-05-21T12:37:10;94987.59;;;20.76;51.45
7182;BME280;3632;42.724;23.298;2023-05-21T12:39:41;95006.56;;;21.45;52.36
7182;BME280;3632;42.724;23.298;2023-05-21T12:42:09;94876.56;;;20.60;53.88
7182;BME280;3632;42.724;23.298;2023-05-21T12:44:37;95022.41;;;21.70;54.03
7182;BME280;3632;42.724;23.298;2023-05-21T12:47:05;95028.75;;;21.61;55.23
7182;BME280;3632;42.724;23.298;2023-05-21T12:49:34;95022.41;;;21.70;54.78
7182;BME280;3632;42.724;23.298;2023-05-21T12:52:07;95026.41;;;21.66;54.22
7182;BME280;3632;42.724;23.298;2023-05-21T12:54:35;95023.63;;;21.74;54.91
7182;BME280;3632;42.724;23.298;2023-05-21T12:57:08;94919.25;;;21.05;54.44
7182;BME280;3632;42.724;23.298;2023-05-21T12:59:43;94622.63;;;19.04;56.11
7182;BME280;3632;42.724;23.298;2023-05-21T13:02:13;94699.75;;;18.86;54.91
7182;BME280;3632;42.724;23.298;2023-05-21T13:04:41;94646.44;;;18.99;54.49
7182;BME280;3632;42.724;23.298;2023-05-21T13:07:08;95017.06;;;21.30;55.18
7182;BME280;3632;42.724;23.298;2023-05-21T13:09:35;94992.78;;;21.04;56.02
7182;BME280;3632;42.724;23.298;2023-05-21T13:12:01;94836.91;;;19.97;57.32
7182;BME280;3632;42.724;23.298;2023-05-21T13:14:30;95015.53;;;21.08;58.58